createdAt,value
2022-08-10T00:00:40.958Z,77.23
2022-08-10T00:01:41.061Z,78.58
2022-08-10T00:02:40.943Z,78.67
2022-08-10T00:03:40.929Z,77.87
2022-08-10T00:04:41.049Z,78.67
2022-08-10T00:05:43.367Z,78.17
2022-08-10T00:06:40.953Z,77.47
2022-08-10T00:07:40.885Z,77.37
2022-08-10T00:08:40.955Z,78.07
2022-08-10T00:09:50.677Z,77.97
2022-08-10T00:10:40.871Z,77.47
2022-08-10T00:11:40.910Z,77.37
2022-08-10T00:12:53.454Z,76.87
2022-08-10T00:13:40.845Z,76.67
2022-08-10T00:14:40.893Z,77.53
2022-08-10T00:15:53.358Z,77.37
2022-08-10T00:16:40.827Z,76.43
2022-08-10T00:17:40.786Z,77.13
2022-08-10T00:18:40.751Z,76.67
2022-08-10T00:20:03.308Z,77.27
2022-08-10T00:20:40.801Z,77.17
2022-08-10T00:21:40.836Z,78.38
2022-08-10T00:22:52.837Z,77.87
2022-08-10T00:23:40.829Z,77.57
2022-08-10T00:24:43.205Z,77.17
2022-08-10T00:25:40.690Z,77.07
2022-08-10T00:27:58.919Z,78.17
2022-08-10T00:28:08.482Z,77.87
2022-08-10T00:28:40.660Z,77.77
2022-08-10T00:29:40.647Z,77.87
2022-08-10T00:30:40.674Z,78.88
2022-08-10T00:31:57.794Z,78.88
2022-08-10T00:32:40.607Z,78.17
2022-08-10T00:33:40.596Z,78.61
2022-08-10T00:34:40.625Z,78.21
2022-08-10T00:35:40.608Z,77.70
2022-08-10T00:36:40.558Z,78.81
2022-08-10T00:37:40.547Z,79.11
2022-08-10T00:38:40.534Z,78.81
2022-08-10T00:39:40.542Z,78.91
2022-08-10T00:40:40.517Z,78.31
2022-08-10T00:41:40.528Z,78.51
2022-08-10T00:42:40.489Z,79.02
2022-08-10T00:43:40.551Z,79.22
2022-08-10T00:44:40.486Z,79.32
2022-08-10T00:45:40.471Z,79.02
2022-08-10T00:46:40.501Z,79.76
2022-08-10T00:47:40.450Z,80.66
2022-08-10T00:48:40.442Z,80.16
2022-08-10T00:49:40.412Z,80.06
2022-08-10T00:50:40.408Z,79.86
2022-08-10T00:51:48.570Z,80.16
2022-08-10T00:52:40.391Z,79.86
2022-08-10T00:53:40.403Z,80.46
2022-08-10T00:54:40.391Z,80.26
2022-08-10T00:56:39.783Z,80.26
2022-08-10T00:57:21.975Z,80.26
2022-08-10T00:57:40.337Z,80.50
2022-08-10T00:58:40.342Z,80.00
2022-08-10T00:59:57.616Z,80.20
2022-08-10T01:00:40.298Z,79.90
2022-08-10T01:02:09.258Z,80.10
2022-08-10T01:02:40.578Z,79.16
2022-08-10T01:04:42.070Z,80.26
2022-08-10T01:05:05.186Z,80.10
2022-08-10T01:05:51.369Z,80.40
2022-08-10T01:06:40.223Z,80.70
2022-08-10T01:07:40.284Z,80.60
2022-08-10T01:08:40.195Z,80.90
2022-08-10T01:09:40.189Z,80.70
2022-08-10T01:10:40.248Z,80.40
2022-08-10T01:12:38.561Z,80.80
2022-08-10T01:12:45.807Z,80.50
2022-08-10T01:13:40.157Z,80.90
2022-08-10T01:14:40.170Z,80.60
2022-08-10T01:15:40.126Z,81.10
2022-08-10T01:16:40.115Z,81.71
2022-08-10T01:17:50.134Z,81.24
2022-08-10T01:18:40.142Z,81.55
2022-08-10T01:19:40.125Z,80.94
2022-08-10T01:20:40.051Z,81.35
2022-08-10T01:21:40.089Z,80.54
2022-08-10T01:22:40.067Z,80.84
2022-08-10T01:23:40.035Z,81.75
2022-08-10T01:24:40.038Z,81.85
2022-08-10T01:26:11.103Z,81.04
2022-08-10T01:26:40.557Z,80.94
2022-08-10T01:27:39.970Z,80.94
2022-08-10T01:28:39.963Z,81.04
2022-08-10T01:29:40.027Z,80.84
2022-08-10T01:30:39.942Z,81.45
2022-08-10T01:31:39.949Z,81.35
2022-08-10T01:32:39.937Z,80.74
2022-08-10T01:33:58.500Z,80.44
2022-08-10T01:34:39.906Z,81.45
2022-08-10T01:35:39.905Z,80.44
2022-08-10T01:36:39.903Z,81.35
2022-08-10T01:37:39.867Z,82.05
2022-08-10T01:38:39.850Z,81.95
2022-08-10T01:39:39.953Z,81.15
2022-08-10T01:40:39.852Z,80.64
2022-08-10T01:41:45.600Z,81.04
2022-08-10T01:42:39.850Z,81.55
2022-08-10T01:43:39.789Z,81.45
2022-08-10T01:44:39.789Z,81.24
2022-08-10T01:45:45.209Z,80.94
2022-08-10T01:46:39.790Z,81.35
2022-08-10T01:47:39.750Z,81.65
2022-08-10T01:48:39.754Z,81.55
2022-08-10T01:49:39.760Z,81.45
2022-08-10T01:50:53.430Z,81.08
2022-08-10T01:51:39.751Z,81.28
2022-08-10T01:52:39.820Z,81.59
2022-08-10T01:53:40.865Z,81.38
2022-08-10T01:54:39.677Z,81.18
2022-08-10T01:55:39.676Z,81.38
2022-08-10T01:56:39.695Z,81.59
2022-08-10T01:57:39.634Z,81.89
2022-08-10T01:58:39.654Z,82.09
2022-08-10T01:59:39.609Z,82.03
2022-08-10T02:00:39.615Z,82.23
2022-08-10T02:01:39.710Z,82.43
2022-08-10T02:02:39.586Z,81.73
2022-08-10T02:04:02.229Z,82.03
2022-08-10T02:04:39.587Z,82.64
2022-08-10T02:05:39.605Z,82.33
2022-08-10T02:06:39.576Z,82.33
2022-08-10T02:07:39.557Z,82.73
2022-08-10T02:08:39.516Z,82.73
2022-08-10T02:09:39.530Z,83.14
2022-08-10T02:10:39.529Z,83.14
2022-08-10T02:12:05.455Z,83.24
2022-08-10T02:12:39.494Z,83.14
2022-08-10T02:13:39.494Z,83.24
2022-08-10T02:14:39.505Z,83.34
2022-08-10T02:15:39.446Z,82.93
2022-08-10T02:16:39.451Z,82.84
2022-08-10T02:17:59.259Z,83.24
2022-08-10T02:18:39.420Z,83.38
2022-08-10T02:19:39.402Z,83.58
2022-08-10T02:20:39.419Z,83.28
2022-08-10T02:21:39.425Z,82.87
2022-08-10T02:22:41.905Z,82.67
2022-08-10T02:23:39.355Z,83.18
2022-08-10T02:24:40.194Z,83.18
2022-08-10T02:25:42.002Z,83.07
2022-08-10T02:26:39.372Z,83.28
2022-08-10T02:27:39.353Z,83.28
2022-08-10T02:28:39.294Z,83.18
2022-08-10T02:29:42.502Z,83.18
2022-08-10T02:30:39.321Z,83.38
2022-08-10T02:31:39.274Z,83.38
2022-08-10T02:32:39.448Z,83.48
2022-08-10T02:33:39.246Z,82.98
2022-08-10T02:34:39.231Z,83.22
2022-08-10T02:35:54.584Z,83.22
2022-08-10T02:36:39.226Z,83.32
2022-08-10T02:37:39.193Z,83.42
2022-08-10T02:38:58.299Z,83.12
2022-08-10T02:39:39.267Z,83.01
2022-08-10T02:45:02.255Z,83.52
2022-08-10T02:45:31.770Z,83.42
2022-08-10T02:45:37.510Z,83.96
2022-08-10T02:46:37.091Z,84.17
2022-08-10T02:47:50.884Z,83.96
2022-08-10T02:48:37.016Z,83.96
2022-08-10T02:49:37.019Z,84.06
2022-08-10T02:50:37.068Z,84.06
2022-08-10T02:52:07.740Z,84.06
2022-08-10T02:52:37.146Z,84.27
2022-08-10T02:53:56.552Z,84.37
2022-08-10T02:54:36.962Z,84.47
2022-08-10T02:55:36.916Z,84.27
2022-08-10T02:56:36.954Z,84.37
2022-08-10T02:57:36.898Z,84.41
2022-08-10T02:58:36.920Z,84.41
2022-08-10T02:59:39.611Z,84.51
2022-08-10T03:00:36.873Z,84.41
2022-08-10T03:01:36.980Z,84.51
2022-08-10T03:02:37.112Z,84.20
2022-08-10T03:03:36.846Z,84.61
2022-08-10T03:04:56.022Z,84.51
2022-08-10T03:05:36.854Z,84.71
2022-08-10T03:06:36.831Z,84.51
2022-08-10T03:07:43.173Z,84.81
2022-08-10T03:08:36.798Z,84.91
2022-08-10T03:09:36.760Z,84.61
2022-08-10T03:10:39.485Z,85.11
2022-08-10T03:12:35.007Z,85.02
2022-08-10T03:12:43.281Z,84.71
2022-08-10T03:13:36.747Z,84.71
2022-08-10T03:14:36.742Z,84.31
2022-08-10T03:15:36.699Z,84.81
2022-08-10T03:16:36.709Z,84.95
2022-08-10T03:17:36.719Z,84.81
2022-08-10T03:18:36.663Z,85.16
2022-08-10T03:20:34.423Z,85.36
2022-08-10T03:20:41.004Z,85.25
2022-08-10T03:21:36.659Z,85.36
2022-08-10T03:22:36.775Z,85.25
2022-08-10T03:23:36.639Z,85.16
2022-08-10T03:24:36.593Z,85.05
2022-08-10T03:25:36.589Z,85.05
2022-08-10T03:26:36.599Z,85.05
2022-08-10T03:27:36.567Z,85.05
2022-08-10T03:28:36.558Z,84.75
2022-08-10T03:30:28.295Z,84.85
2022-08-10T03:30:38.442Z,85.16
2022-08-10T03:31:36.595Z,85.30
2022-08-10T03:32:36.733Z,85.30
2022-08-10T03:33:36.513Z,85.10
2022-08-10T03:34:36.523Z,85.30
2022-08-10T03:35:36.461Z,85.50
2022-08-10T03:36:41.827Z,85.60
2022-08-10T03:37:36.467Z,85.70
2022-08-10T03:38:36.531Z,85.50
2022-08-10T03:39:36.478Z,84.99
2022-08-10T03:40:46.271Z,84.79
2022-08-10T03:41:36.458Z,84.79
2022-08-10T03:42:36.597Z,84.59
2022-08-10T03:43:36.377Z,84.79
2022-08-10T03:44:36.375Z,84.79
2022-08-10T03:45:48.588Z,84.79
2022-08-10T03:46:36.392Z,84.69
2022-08-10T03:47:36.341Z,84.79
2022-08-10T03:48:48.651Z,84.89
2022-08-10T03:49:36.341Z,85.03
2022-08-10T03:50:51.064Z,85.24
2022-08-10T03:51:36.347Z,85.54
2022-08-10T03:52:36.474Z,85.84
2022-08-10T03:54:03.335Z,86.05
2022-08-10T03:54:36.352Z,85.94
2022-08-10T03:56:26.959Z,85.84
2022-08-10T03:56:36.304Z,85.99
2022-08-10T03:57:36.260Z,86.08
2022-08-10T03:58:36.215Z,86.29
2022-08-10T03:59:36.249Z,86.29
2022-08-10T04:00:36.318Z,86.39
2022-08-10T04:02:44.576Z,86.49
2022-08-10T04:02:53.169Z,86.39
2022-08-10T04:03:36.161Z,86.49
2022-08-10T04:04:36.174Z,86.49
2022-08-10T04:05:38.080Z,86.29
2022-08-10T04:06:36.119Z,86.39
2022-08-10T04:07:36.111Z,86.19
2022-08-10T04:08:36.143Z,86.29
2022-08-10T04:09:53.035Z,86.19
2022-08-10T04:10:36.105Z,86.19
2022-08-10T04:11:36.082Z,86.19
2022-08-10T04:12:36.275Z,85.99
2022-08-10T04:13:36.056Z,85.99
2022-08-10T04:14:48.886Z,85.88
2022-08-10T04:15:36.134Z,85.88
2022-08-10T04:16:36.017Z,85.68
2022-08-10T04:17:56.991Z,85.78
2022-08-10T04:18:36.058Z,85.78
2022-08-10T04:19:35.972Z,85.78
2022-08-10T04:20:35.965Z,85.88
2022-08-10T04:21:36.015Z,85.99
2022-08-10T04:22:36.142Z,86.19
2022-08-10T04:23:35.959Z,85.99
2022-08-10T04:24:35.955Z,85.99
2022-08-10T04:25:35.918Z,85.88
2022-08-10T04:26:35.933Z,86.08
2022-08-10T04:27:35.928Z,86.43
2022-08-10T04:28:35.879Z,86.43
2022-08-10T04:29:35.876Z,86.53
2022-08-10T04:30:35.905Z,86.39
2022-08-10T04:31:35.851Z,86.49
2022-08-10T04:32:36.106Z,86.69
2022-08-10T04:33:35.832Z,86.39
2022-08-10T04:34:35.963Z,87.00
2022-08-10T04:35:35.817Z,87.00
2022-08-10T04:36:35.846Z,86.90
2022-08-10T04:37:35.788Z,86.79
2022-08-10T04:38:35.775Z,86.29
2022-08-10T04:39:35.905Z,86.39
2022-08-10T04:40:35.759Z,87.60
2022-08-10T04:41:35.735Z,88.01
2022-08-10T04:42:35.912Z,87.40
2022-08-10T04:43:35.752Z,87.40
2022-08-10T04:44:42.337Z,87.30
2022-08-10T04:45:49.167Z,86.76
2022-08-10T04:46:55.347Z,86.85
2022-08-10T04:47:57.216Z,87.05
2022-08-10T04:48:40.009Z,87.05
2022-08-10T04:49:55.191Z,86.85
2022-08-10T04:50:35.691Z,87.87
2022-08-10T04:51:35.615Z,87.56
2022-08-10T04:52:35.871Z,87.56
2022-08-10T04:54:03.155Z,87.16
2022-08-10T04:54:35.588Z,87.05
2022-08-10T04:55:35.848Z,86.65
2022-08-10T04:56:35.644Z,85.90
2022-08-10T04:57:35.550Z,85.80
2022-08-10T04:58:35.582Z,86.31
2022-08-10T04:59:35.547Z,86.21
2022-08-10T05:00:35.548Z,86.51
2022-08-10T05:02:30.473Z,86.27
2022-08-10T05:02:36.706Z,85.76
2022-08-10T05:03:35.476Z,85.56
2022-08-10T05:04:42.302Z,85.36
2022-08-10T05:05:35.469Z,87.38
2022-08-10T05:06:35.444Z,87.38
2022-08-10T05:07:53.887Z,86.77
2022-08-10T05:08:35.519Z,86.07
2022-08-10T05:10:02.825Z,85.25
2022-08-10T05:10:35.420Z,85.72
2022-08-10T05:11:35.385Z,85.52
2022-08-10T05:12:36.454Z,85.22
2022-08-10T05:13:35.370Z,85.52
2022-08-10T05:14:35.355Z,85.02
2022-08-10T05:15:35.473Z,85.22
2022-08-10T05:16:35.325Z,86.93
2022-08-10T05:17:35.363Z,85.93
2022-08-10T05:18:35.312Z,85.93
2022-08-10T05:20:04.561Z,86.22
2022-08-10T05:20:35.294Z,86.59
2022-08-10T05:21:56.990Z,86.08
2022-08-10T05:22:35.672Z,85.88
2022-08-10T05:23:35.257Z,85.99
2022-08-10T05:24:35.246Z,86.59
2022-08-10T05:25:38.342Z,86.69
2022-08-10T05:26:39.164Z,85.88
2022-08-10T05:27:35.249Z,85.38
2022-08-10T05:28:35.392Z,85.08
2022-08-10T05:29:35.190Z,84.37
2022-08-10T05:30:35.197Z,84.63
2022-08-10T05:31:35.226Z,84.53
2022-08-10T05:32:57.919Z,84.73
2022-08-10T05:33:35.145Z,85.10
2022-08-10T05:34:35.131Z,85.30
2022-08-10T05:35:51.794Z,85.40
2022-08-10T05:36:35.227Z,85.19
2022-08-10T05:38:10.859Z,84.99
2022-08-10T05:38:35.296Z,84.89
2022-08-10T05:39:35.167Z,85.90
2022-08-10T05:40:35.487Z,84.49
2022-08-10T05:41:35.347Z,84.05
2022-08-10T05:42:35.276Z,84.65
2022-08-10T05:43:35.053Z,84.85
2022-08-10T05:44:35.023Z,83.84
2022-08-10T05:46:18.431Z,83.54
2022-08-10T05:46:35.009Z,83.20
2022-08-10T05:48:57.253Z,83.20
2022-08-10T05:49:04.568Z,82.79
2022-08-10T05:49:35.001Z,82.70
2022-08-10T05:50:34.986Z,83.00
2022-08-10T05:51:34.949Z,82.65
2022-08-10T05:52:35.097Z,82.86
2022-08-10T05:54:03.406Z,82.65
2022-08-10T05:54:34.925Z,82.25
2022-08-10T05:55:34.931Z,81.51
2022-08-10T05:56:57.118Z,81.30
2022-08-10T05:57:34.876Z,81.61
2022-08-10T05:58:34.852Z,81.61
2022-08-10T06:00:31.135Z,80.40
2022-08-10T06:00:49.681Z,80.66
2022-08-10T06:01:34.882Z,79.86
2022-08-10T06:02:35.861Z,80.77
2022-08-10T06:03:34.800Z,81.27
2022-08-10T06:04:34.843Z,81.37
2022-08-10T06:05:34.798Z,81.07
2022-08-10T06:06:34.802Z,80.57
2022-08-10T06:07:34.969Z,80.66
2022-08-10T06:08:34.822Z,80.66
2022-08-10T06:09:34.818Z,80.63
2022-08-10T06:10:35.626Z,80.43
2022-08-10T06:12:23.531Z,80.32
2022-08-10T06:12:53.357Z,80.12
2022-08-10T06:13:43.615Z,79.58
2022-08-10T06:14:34.697Z,78.88
2022-08-10T06:15:51.750Z,78.58
2022-08-10T06:16:34.900Z,78.58
2022-08-10T06:17:34.648Z,78.27
2022-08-10T06:18:34.682Z,78.44
2022-08-10T06:19:34.624Z,78.14
2022-08-10T06:20:36.213Z,77.83
2022-08-10T06:21:34.597Z,77.73
2022-08-10T06:22:34.722Z,77.70
2022-08-10T06:23:34.558Z,77.09
2022-08-10T06:24:34.615Z,76.89
2022-08-10T06:26:34.562Z,76.59
2022-08-10T06:27:34.988Z,75.95
2022-08-10T06:28:34.630Z,76.35
2022-08-10T06:29:34.559Z,76.25
2022-08-10T06:30:34.573Z,76.56
2022-08-10T06:31:48.718Z,76.35
2022-08-10T06:32:34.527Z,75.82
2022-08-10T06:33:34.495Z,75.31
2022-08-10T06:34:34.525Z,75.62
2022-08-10T06:35:34.442Z,75.11
2022-08-10T06:36:34.462Z,75.11
2022-08-10T06:37:34.400Z,74.81
2022-08-10T06:38:34.461Z,74.61
2022-08-10T06:39:35.655Z,74.18
2022-08-10T06:40:34.413Z,73.97
2022-08-10T06:42:15.309Z,73.97
2022-08-10T06:42:34.520Z,73.97
2022-08-10T06:43:34.330Z,73.97
2022-08-10T06:44:34.331Z,72.97
2022-08-10T06:45:34.676Z,73.27
2022-08-10T06:46:34.312Z,72.83
2022-08-10T06:47:34.327Z,73.24
2022-08-10T06:48:34.297Z,72.70
2022-08-10T06:49:34.295Z,72.60
2022-08-10T06:50:34.549Z,72.60
2022-08-10T06:51:34.267Z,72.36
2022-08-10T06:52:34.266Z,71.96
2022-08-10T06:53:52.136Z,71.46
2022-08-10T06:54:34.212Z,71.86
2022-08-10T06:55:49.572Z,72.27
2022-08-10T06:56:36.110Z,70.96
2022-08-10T06:57:34.229Z,71.56
2022-08-10T06:58:34.161Z,71.83
2022-08-10T06:59:34.218Z,72.03
2022-08-10T07:00:34.774Z,71.63
2022-08-10T07:01:34.239Z,71.63
2022-08-10T07:02:34.259Z,71.30
2022-08-10T07:03:34.180Z,70.79
2022-08-10T07:04:34.167Z,70.09
2022-08-10T07:05:34.144Z,70.50
2022-08-10T07:06:34.080Z,68.89
2022-08-10T07:07:34.077Z,70.39
2022-08-10T07:08:34.082Z,68.29
2022-08-10T07:09:34.055Z,69.59
2022-08-10T07:10:46.155Z,69.29
2022-08-10T07:11:34.099Z,68.26
2022-08-10T07:12:34.312Z,68.86
2022-08-10T07:14:16.952Z,69.06
2022-08-10T07:14:33.992Z,68.96
2022-08-10T07:15:59.861Z,69.32
2022-08-10T07:16:33.980Z,69.23
2022-08-10T07:17:39.116Z,67.22
2022-08-10T07:18:33.967Z,68.02
2022-08-10T07:19:33.943Z,67.52
2022-08-10T07:20:33.968Z,68.52
2022-08-10T07:21:33.978Z,68.29
2022-08-10T07:23:01.677Z,66.52
2022-08-10T07:24:01.459Z,67.69
2022-08-10T07:24:33.943Z,68.09
2022-08-10T07:25:33.890Z,68.16
2022-08-10T07:26:33.894Z,67.56
2022-08-10T07:27:59.222Z,67.56
2022-08-10T07:28:33.880Z,67.03
2022-08-10T07:29:54.227Z,66.93
2022-08-10T07:30:33.844Z,67.13
2022-08-10T07:31:57.240Z,66.50
2022-08-10T07:32:33.864Z,65.40
2022-08-10T07:33:33.806Z,66.30
2022-08-10T07:34:33.758Z,65.80
2022-08-10T07:35:42.938Z,64.80
2022-08-10T07:36:33.743Z,65.47
2022-08-10T07:37:33.741Z,65.26
2022-08-10T07:38:33.719Z,62.77
2022-08-10T07:40:01.814Z,64.37
2022-08-10T07:40:33.793Z,63.67
2022-08-10T07:41:33.723Z,64.74
2022-08-10T07:42:33.675Z,62.94
2022-08-10T07:43:33.699Z,63.94
2022-08-10T07:44:33.642Z,64.24
2022-08-10T07:45:33.649Z,64.31
2022-08-10T07:46:33.633Z,62.61
2022-08-10T07:47:53.349Z,63.81
2022-08-10T07:48:33.627Z,61.02
2022-08-10T07:49:33.611Z,61.44
2022-08-10T07:50:35.361Z,61.74
2022-08-10T07:51:33.569Z,63.04
2022-08-10T07:52:33.569Z,62.21
2022-08-10T07:53:33.569Z,61.61
2022-08-10T07:54:33.532Z,63.11
2022-08-10T07:56:03.407Z,61.39
2022-08-10T07:56:48.663Z,61.49
2022-08-10T07:57:38.218Z,61.09
2022-08-10T07:58:33.490Z,59.77
2022-08-10T07:59:33.569Z,60.46
2022-08-10T08:00:33.498Z,61.36
2022-08-10T08:01:33.513Z,61.33
2022-08-10T08:02:35.810Z,61.72
2022-08-10T08:03:33.431Z,59.74
2022-08-10T08:04:33.445Z,62.02
2022-08-10T08:05:58.239Z,61.30
2022-08-10T08:06:33.416Z,58.61
2022-08-10T08:07:33.382Z,58.31
2022-08-10T08:08:33.581Z,60.70
2022-08-10T08:09:33.357Z,61.47
2022-08-10T08:10:33.402Z,60.47
2022-08-10T08:11:33.497Z,57.42
2022-08-10T08:12:36.801Z,59.01
2022-08-10T08:13:33.324Z,58.41
2022-08-10T08:14:33.320Z,58.81
2022-08-10T08:16:17.151Z,60.17
2022-08-10T08:16:33.318Z,59.48
2022-08-10T08:17:35.457Z,59.25
2022-08-10T08:18:33.308Z,59.85
2022-08-10T08:19:37.690Z,58.53
2022-08-10T08:20:33.313Z,58.13
2022-08-10T08:24:09.126Z,56.54
2022-08-10T08:24:35.622Z,58.00
2022-08-10T08:24:41.459Z,58.37
2022-08-10T08:25:41.050Z,55.40
2022-08-10T08:26:41.067Z,55.89
2022-08-10T08:27:41.009Z,58.07
2022-08-10T08:28:41.073Z,54.10
2022-08-10T08:29:41.104Z,56.59
2022-08-10T08:30:43.522Z,54.40
2022-08-10T08:31:54.209Z,53.11
2022-08-10T08:32:40.999Z,54.80
2022-08-10T08:33:41.074Z,54.40
2022-08-10T08:34:40.939Z,55.36
2022-08-10T08:35:41.069Z,55.17
2022-08-10T08:36:40.984Z,53.78
2022-08-10T08:38:32.005Z,53.38
2022-08-10T08:38:40.934Z,54.77
2022-08-10T08:39:40.975Z,55.76
2022-08-10T08:40:40.867Z,54.15
2022-08-10T08:41:40.941Z,52.86
2022-08-10T08:42:40.816Z,53.56
2022-08-10T08:43:40.980Z,52.94
2022-08-10T08:44:40.813Z,54.22
2022-08-10T08:45:51.053Z,53.83
2022-08-10T08:46:40.797Z,53.13
2022-08-10T08:48:04.921Z,50.36
2022-08-10T08:48:40.842Z,52.14
2022-08-10T08:50:08.209Z,53.70
2022-08-10T08:50:40.804Z,51.72
2022-08-10T08:52:08.071Z,51.23
2022-08-10T08:52:40.761Z,49.54
2022-08-10T08:54:02.199Z,49.86
2022-08-10T08:54:40.762Z,52.04
2022-08-10T08:56:04.421Z,53.50
2022-08-10T08:56:40.740Z,49.54
2022-08-10T08:57:49.481Z,49.24
2022-08-10T08:58:40.694Z,51.12
2022-08-10T08:59:40.650Z,51.62
2022-08-10T09:00:40.772Z,52.09
2022-08-10T09:01:41.229Z,51.00
2022-08-10T09:02:40.634Z,53.16
2022-08-10T09:03:40.781Z,50.68
2022-08-10T09:04:40.725Z,49.79
2022-08-10T09:06:00.213Z,50.88
2022-08-10T09:06:40.745Z,51.54
2022-08-10T09:08:00.198Z,50.76
2022-08-10T09:08:40.551Z,50.95
2022-08-10T09:09:40.564Z,50.83
2022-08-10T09:10:40.615Z,50.53
2022-08-10T09:11:40.572Z,51.59
2022-08-10T09:12:40.527Z,49.22
2022-08-10T09:13:40.549Z,47.37
2022-08-10T09:14:40.510Z,47.27
2022-08-10T09:15:41.588Z,48.26
2022-08-10T09:16:40.515Z,47.56
2022-08-10T09:17:40.573Z,47.17
2022-08-10T09:18:40.520Z,51.00
2022-08-10T09:19:40.467Z,46.36
2022-08-10T09:20:40.408Z,49.52
2022-08-10T09:21:43.410Z,48.53
2022-08-10T09:22:40.393Z,45.76
2022-08-10T09:24:04.759Z,47.15
2022-08-10T09:24:40.369Z,46.16
2022-08-10T09:25:40.423Z,47.94
2022-08-10T09:26:40.390Z,47.13
2022-08-10T09:27:40.363Z,45.64
2022-08-10T09:28:40.337Z,47.13
2022-08-10T09:29:40.363Z,45.35
2022-08-10T09:30:40.675Z,46.41
2022-08-10T09:31:40.318Z,42.76
2022-08-10T09:36:15.894Z,44.36
2022-08-10T09:36:33.868Z,46.31
2022-08-10T09:36:39.401Z,47.60
2022-08-10T09:37:42.628Z,44.34
2022-08-10T09:38:39.015Z,46.22
2022-08-10T09:40:46.256Z,45.13
2022-08-10T09:41:13.178Z,45.40
2022-08-10T09:41:39.000Z,49.35
2022-08-10T09:42:38.943Z,41.95
2022-08-10T09:43:38.923Z,42.64
2022-08-10T09:44:58.408Z,46.19
2022-08-10T09:45:38.938Z,46.00
2022-08-10T09:46:39.013Z,42.24
2022-08-10T09:48:02.297Z,43.84
2022-08-10T09:48:38.902Z,43.25
2022-08-10T09:49:55.773Z,46.41
2022-08-10T09:51:22.353Z,47.18
2022-08-10T09:51:45.905Z,44.22
2022-08-10T09:52:38.860Z,44.49
2022-08-10T09:53:38.813Z,45.18
2022-08-10T09:54:38.821Z,46.04
2022-08-10T09:56:18.508Z,42.50
2022-08-10T09:56:38.803Z,43.19
2022-08-10T09:57:45.027Z,42.10
2022-08-10T09:58:38.811Z,41.75
2022-08-10T10:00:00.838Z,45.08
2022-08-10T10:00:38.780Z,41.63
2022-08-10T10:02:00.323Z,43.82
2022-08-10T10:02:38.725Z,41.17
2022-08-10T10:03:38.752Z,42.38
2022-08-10T10:04:38.704Z,47.22
2022-08-10T10:05:38.698Z,46.61
2022-08-10T10:06:38.706Z,40.98
2022-08-10T10:07:38.677Z,41.10
2022-08-10T10:08:42.653Z,41.99
2022-08-10T10:09:38.692Z,45.03
2022-08-10T10:10:47.553Z,44.42
2022-08-10T10:11:38.672Z,43.03
2022-08-10T10:12:38.603Z,44.29
2022-08-10T10:13:49.180Z,42.20
2022-08-10T10:14:38.594Z,42.89
2022-08-10T10:15:38.581Z,42.89
2022-08-10T10:16:38.581Z,40.25
2022-08-10T10:17:38.726Z,39.65
2022-08-10T10:18:38.535Z,40.07
2022-08-10T10:19:40.755Z,40.37
2022-08-10T10:20:38.516Z,42.64
2022-08-10T10:21:55.103Z,45.28
2022-08-10T10:22:38.514Z,41.41
2022-08-10T10:23:38.470Z,40.05
2022-08-10T10:24:38.494Z,43.41
2022-08-10T10:25:50.961Z,45.06
2022-08-10T10:26:38.467Z,44.25
2022-08-10T10:27:38.590Z,43.74
2022-08-10T10:29:15.333Z,41.17
2022-08-10T10:29:57.290Z,41.17
2022-08-10T10:30:38.575Z,40.39
2022-08-10T10:31:38.474Z,44.60
2022-08-10T10:32:38.405Z,40.37
2022-08-10T10:33:38.370Z,41.35
2022-08-10T10:34:38.349Z,38.91
2022-08-10T10:35:38.343Z,41.55
2022-08-10T10:36:38.345Z,39.31
2022-08-10T10:38:01.465Z,40.98
2022-08-10T10:38:38.366Z,41.94
2022-08-10T10:39:38.329Z,39.76
2022-08-10T10:40:38.285Z,39.95
2022-08-10T10:42:03.474Z,41.63
2022-08-10T10:42:45.864Z,41.11
2022-08-10T10:43:38.258Z,40.72
2022-08-10T10:44:42.135Z,38.46
2022-08-10T10:45:49.944Z,39.44
2022-08-10T10:46:38.270Z,43.38
2022-08-10T10:47:38.359Z,40.70
2022-08-10T10:48:38.222Z,36.59
2022-08-10T10:49:38.241Z,39.15
2022-08-10T10:50:38.193Z,44.05
2022-08-10T10:51:38.222Z,38.05
2022-08-10T10:52:38.136Z,39.82
2022-08-10T10:53:38.167Z,40.69
2022-08-10T10:54:38.142Z,41.96
2022-08-10T10:56:15.516Z,38.23
2022-08-10T10:56:38.130Z,38.03
2022-08-10T10:57:58.466Z,37.07
2022-08-10T10:58:38.076Z,39.70
2022-08-10T10:59:55.283Z,40.78
2022-08-10T11:00:38.087Z,40.56
2022-08-10T11:01:38.175Z,41.35
2022-08-10T11:02:38.794Z,37.72
2022-08-10T11:03:38.026Z,38.62
2022-08-10T11:04:38.038Z,38.15
2022-08-10T11:05:38.073Z,38.95
2022-08-10T11:06:40.545Z,41.59
2022-08-10T11:07:38.070Z,41.96
2022-08-10T11:08:38.084Z,37.05
2022-08-10T11:10:08.909Z,41.27
2022-08-10T11:10:47.224Z,36.63
2022-08-10T11:12:01.198Z,38.60
2022-08-10T11:12:39.939Z,38.31
2022-08-10T11:14:24.409Z,38.40
2022-08-10T11:14:37.940Z,37.93
2022-08-10T11:15:42.750Z,37.93
2022-08-10T11:16:37.971Z,37.67
2022-08-10T11:17:38.111Z,41.69
2022-08-10T11:18:38.090Z,40.09
2022-08-10T11:20:02.925Z,39.19
2022-08-10T11:20:37.855Z,36.05
2022-08-10T11:21:37.845Z,40.19
2022-08-10T11:22:37.805Z,39.39
2022-08-10T11:23:37.844Z,35.67
2022-08-10T11:24:48.017Z,39.13
2022-08-10T11:25:37.834Z,40.11
2022-08-10T11:26:37.804Z,37.85
2022-08-10T11:27:38.041Z,39.50
2022-08-10T11:28:37.815Z,36.67
2022-08-10T11:29:38.453Z,37.46
2022-08-10T11:30:37.728Z,36.99
2022-08-10T11:31:37.783Z,39.13
2022-08-10T11:32:37.709Z,39.50
2022-08-10T11:34:03.896Z,38.80
2022-08-10T11:35:11.295Z,37.92
2022-08-10T11:35:37.781Z,40.45
2022-08-10T11:36:37.786Z,38.85
2022-08-10T11:38:30.999Z,42.37
2022-08-10T11:38:57.727Z,37.96
2022-08-10T11:39:37.698Z,38.04
2022-08-10T11:40:37.729Z,36.76
2022-08-10T11:42:08.885Z,39.29
2022-08-10T11:42:37.636Z,36.37
2022-08-10T11:43:37.613Z,35.66
2022-08-10T11:44:37.657Z,36.65
2022-08-10T11:45:37.597Z,34.88
2022-08-10T11:46:37.586Z,36.96
2022-08-10T11:47:37.675Z,35.11
2022-08-10T11:48:54.659Z,36.78
2022-08-10T11:49:37.522Z,33.65
2022-08-10T11:50:37.523Z,39.06
2022-08-10T11:51:37.524Z,36.70
2022-08-10T11:52:37.619Z,35.36
2022-08-10T11:53:39.218Z,36.63
2022-08-10T11:54:37.487Z,39.19
2022-08-10T11:55:37.461Z,37.70
2022-08-10T11:56:37.475Z,38.15
2022-08-10T11:57:53.827Z,32.66
2022-08-10T11:58:37.510Z,37.37
2022-08-10T11:59:37.397Z,36.98
2022-08-10T12:00:37.409Z,36.68
2022-08-10T12:01:37.438Z,36.18
2022-08-10T12:02:37.699Z,38.23
2022-08-10T12:03:37.427Z,35.17
2022-08-10T12:04:37.408Z,33.51
2022-08-10T12:05:51.935Z,33.54
2022-08-10T12:06:54.675Z,33.97
2022-08-10T12:10:06.056Z,36.13
2022-08-10T12:10:17.459Z,39.94
2022-08-10T12:10:22.379Z,39.64
2022-08-10T12:11:24.737Z,38.15
2022-08-10T12:12:22.410Z,36.29
2022-08-10T12:13:22.415Z,34.13
2022-08-10T12:14:23.126Z,39.25
2022-08-10T12:15:22.313Z,38.45
2022-08-10T12:16:22.331Z,36.37
2022-08-10T12:17:22.295Z,38.60
2022-08-10T12:18:22.327Z,34.20
2022-08-10T12:19:22.307Z,36.74
2022-08-10T12:20:22.324Z,36.92
2022-08-10T12:21:22.450Z,38.28
2022-08-10T12:22:22.377Z,35.03
2022-08-10T12:23:22.262Z,35.08
2022-08-10T12:24:22.236Z,40.16
2022-08-10T12:25:56.165Z,38.59
2022-08-10T12:26:22.327Z,35.93
2022-08-10T12:27:22.226Z,33.65
2022-08-10T12:28:22.188Z,38.28
2022-08-10T12:29:25.265Z,34.57
2022-08-10T12:30:22.175Z,34.96
2022-08-10T12:31:22.237Z,36.53
2022-08-10T12:32:25.856Z,32.71
2022-08-10T12:33:22.215Z,35.76
2022-08-10T12:34:22.142Z,33.61
2022-08-10T12:35:26.605Z,36.45
2022-08-10T12:36:22.153Z,37.02
2022-08-10T12:37:22.140Z,33.98
2022-08-10T12:38:22.063Z,38.49
2022-08-10T12:39:22.251Z,35.65
2022-08-10T12:40:35.108Z,35.35
2022-08-10T12:41:23.866Z,36.32
2022-08-10T12:42:36.979Z,37.18
2022-08-10T12:44:05.130Z,35.81
2022-08-10T12:44:22.075Z,32.86
2022-08-10T12:45:22.027Z,33.54
2022-08-10T12:46:22.030Z,31.70
2022-08-10T12:47:22.087Z,34.84
2022-08-10T12:48:21.969Z,38.16
2022-08-10T12:49:21.956Z,34.55
2022-08-10T12:50:31.252Z,33.38
2022-08-10T12:51:21.963Z,32.45
2022-08-10T12:52:21.926Z,36.65
2022-08-10T12:53:21.975Z,35.86
2022-08-10T12:54:31.738Z,36.25
2022-08-10T12:55:21.921Z,36.55
2022-08-10T12:56:21.954Z,33.29
2022-08-10T12:57:21.878Z,31.74
2022-08-10T12:58:59.808Z,34.67
2022-08-10T12:59:21.879Z,31.44
2022-08-10T13:00:21.849Z,33.79